createdAt,value
2022-12-11T00:00:25.766Z,2.79
2022-12-11T00:02:53.583Z,2.56
2022-12-11T00:05:21.154Z,2.64
2022-12-11T00:07:48.773Z,2.76
2022-12-11T00:10:17.794Z,2.72
2022-12-11T00:12:47.078Z,2.88
2022-12-11T00:15:14.879Z,2.53
2022-12-11T00:17:43.974Z,2.50
2022-12-11T00:20:12.721Z,2.54
2022-12-11T00:22:41.500Z,2.56
2022-12-11T00:25:10.233Z,2.60
2022-12-11T00:27:38.021Z,2.57
2022-12-11T00:30:08.888Z,2.62
2022-12-11T00:32:37.818Z,2.80
2022-12-11T00:35:06.156Z,2.86
2022-12-11T00:37:34.384Z,2.79
2022-12-11T00:40:02.115Z,2.96
2022-12-11T00:42:29.776Z,2.93
2022-12-11T00:44:57.803Z,2.88
2022-12-11T00:47:27.068Z,2.82
2022-12-11T00:49:54.911Z,2.69
2022-12-11T00:52:22.585Z,2.88
2022-12-11T00:54:50.165Z,2.80
2022-12-11T00:57:17.865Z,2.83
2022-12-11T00:59:45.576Z,2.86
2022-12-11T01:02:13.294Z,2.96
2022-12-11T01:04:42.425Z,2.88
2022-12-11T01:07:10.057Z,2.96
2022-12-11T01:09:55.652Z,2.93
2022-12-11T01:12:23.391Z,3.02
2022-12-11T01:14:50.954Z,3.03
2022-12-11T01:17:18.536Z,3.08
2022-12-11T01:19:47.946Z,3.00
2022-12-11T01:22:15.690Z,3.05
2022-12-11T01:24:43.552Z,3.00
2022-12-11T01:27:12.353Z,3.00
2022-12-11T01:29:40.172Z,2.92
2022-12-11T01:32:07.957Z,2.98
2022-12-11T01:34:35.618Z,3.03
2022-12-11T01:37:04.578Z,3.04
2022-12-11T01:39:32.117Z,3.11
2022-12-11T01:42:00.409Z,3.02
2022-12-11T01:45:05.381Z,2.97
2022-12-11T01:47:33.203Z,3.05
2022-12-11T01:50:01.001Z,3.03
2022-12-11T01:52:30.717Z,3.14
2022-12-11T01:54:58.630Z,3.18
2022-12-11T01:57:26.448Z,3.02
2022-12-11T01:59:54.249Z,3.11
2022-12-11T02:02:25.798Z,2.83
2022-12-11T02:04:53.431Z,2.94
2022-12-11T02:07:21.374Z,2.88
2022-12-11T02:09:51.084Z,2.96
2022-12-11T02:12:25.787Z,3.09
2022-12-11T02:15:00.917Z,3.10
2022-12-11T02:17:37.023Z,3.08
2022-12-11T02:20:12.180Z,3.06
2022-12-11T02:23:07.999Z,3.22
2022-12-11T02:25:46.865Z,3.17
2022-12-11T02:28:20.927Z,3.16
2022-12-11T02:30:52.390Z,3.16
2022-12-11T02:33:24.735Z,3.22
2022-12-11T02:35:52.942Z,3.16
2022-12-11T02:38:24.888Z,3.09
2022-12-11T02:40:54.818Z,3.06
2022-12-11T02:43:25.376Z,3.13
2022-12-11T02:45:55.170Z,3.14
2022-12-11T02:48:25.137Z,3.19
2022-12-11T02:50:59.002Z,3.12
2022-12-11T02:53:29.887Z,3.08
2022-12-11T02:56:03.284Z,3.06
2022-12-11T02:58:34.749Z,3.06
2022-12-11T03:01:02.615Z,3.21
2022-12-11T03:03:31.609Z,3.22
2022-12-11T03:05:59.358Z,3.09
2022-12-11T03:08:27.187Z,3.05
2022-12-11T03:10:54.757Z,3.09
2022-12-11T03:13:23.890Z,3.13
2022-12-11T03:16:03.378Z,3.13
2022-12-11T03:18:37.385Z,3.11
2022-12-11T03:21:13.764Z,3.11
2022-12-11T03:23:47.897Z,3.15
2022-12-11T03:26:18.425Z,3.14
2022-12-11T03:28:50.047Z,2.87
2022-12-11T03:31:31.384Z,2.93
2022-12-11T03:34:04.549Z,2.89
2022-12-11T03:36:35.717Z,2.80
2022-12-11T03:39:08.855Z,2.88
2022-12-11T03:41:39.446Z,2.92
2022-12-11T03:44:08.090Z,2.89
2022-12-11T03:46:40.959Z,2.86
2022-12-11T03:49:11.892Z,2.93
2022-12-11T03:51:40.465Z,2.96
2022-12-11T03:54:09.119Z,2.94
2022-12-11T03:56:40.008Z,2.98
2022-12-11T03:59:07.598Z,3.03
2022-12-11T04:01:36.231Z,3.00
2022-12-11T04:04:05.586Z,3.10
2022-12-11T04:06:33.238Z,3.09
2022-12-11T04:09:00.826Z,3.12
2022-12-11T04:11:37.154Z,3.22
2022-12-11T04:14:21.197Z,3.27
2022-12-11T04:16:48.848Z,3.26
2022-12-11T04:19:36.077Z,3.23
2022-12-11T04:22:21.062Z,3.28
2022-12-11T04:24:49.217Z,3.19
2022-12-11T04:27:37.290Z,3.19
2022-12-11T04:30:07.072Z,3.20
2022-12-11T04:32:34.807Z,3.22
2022-12-11T04:35:04.028Z,3.16
2022-12-11T04:37:31.661Z,3.10
2022-12-11T04:39:59.597Z,3.12
2022-12-11T04:42:27.216Z,3.15
2022-12-11T04:44:54.824Z,3.24
2022-12-11T04:47:22.437Z,3.15
2022-12-11T04:49:50.006Z,3.17
2022-12-11T04:52:19.583Z,3.15
2022-12-11T04:54:47.292Z,3.15
2022-12-11T04:57:14.916Z,3.12
2022-12-11T04:59:42.641Z,3.06
2022-12-11T05:02:10.215Z,3.01
2022-12-11T05:04:38.066Z,3.10
2022-12-11T05:07:05.827Z,3.12
2022-12-11T05:09:35.316Z,3.13
2022-12-11T05:12:03.194Z,3.22
2022-12-11T05:14:32.064Z,3.19
2022-12-11T05:17:00.032Z,3.34
2022-12-11T05:19:28.927Z,3.35
2022-12-11T05:21:57.575Z,3.36
2022-12-11T05:24:26.307Z,3.22
2022-12-11T05:26:55.349Z,3.23
2022-12-11T05:29:23.011Z,3.22
2022-12-11T05:31:51.396Z,3.27
2022-12-11T05:34:19.201Z,3.32
2022-12-11T05:36:47.214Z,3.28
2022-12-11T05:39:15.087Z,3.21
2022-12-11T05:41:42.812Z,3.23
2022-12-11T05:44:13.518Z,3.27
2022-12-11T05:46:41.889Z,3.31
2022-12-11T05:49:11.343Z,3.32
2022-12-11T05:51:39.620Z,3.20
2022-12-11T05:54:07.471Z,3.19
2022-12-11T05:56:36.289Z,3.20
2022-12-11T05:59:06.452Z,3.20
2022-12-11T06:01:38.037Z,3.10
2022-12-11T06:04:07.785Z,3.10
2022-12-11T06:06:38.437Z,3.13
2022-12-11T06:09:06.531Z,3.25
2022-12-11T06:11:35.259Z,3.28
2022-12-11T06:14:03.927Z,3.19
2022-12-11T06:16:32.226Z,3.17
2022-12-11T06:19:02.381Z,3.26
2022-12-11T06:21:32.067Z,3.31
2022-12-11T06:24:00.988Z,3.33
2022-12-11T06:26:29.666Z,3.23
2022-12-11T06:28:57.350Z,3.15
2022-12-11T06:31:25.133Z,3.24
2022-12-11T06:33:52.791Z,3.29
2022-12-11T06:36:23.934Z,3.39
2022-12-11T06:38:51.942Z,3.38
2022-12-11T06:41:20.150Z,3.41
2022-12-11T06:43:48.415Z,3.48
2022-12-11T06:46:18.755Z,3.49
2022-12-11T06:48:47.049Z,3.38
2022-12-11T06:51:16.824Z,3.37
2022-12-11T06:53:46.652Z,3.39
2022-12-11T06:56:16.062Z,3.38
2022-12-11T06:58:44.639Z,3.40
2022-12-11T07:01:18.796Z,3.38
2022-12-11T07:03:47.102Z,3.42
2022-12-11T07:06:15.301Z,3.29
2022-12-11T07:08:43.946Z,3.24
2022-12-11T07:11:14.515Z,3.28
2022-12-11T07:13:43.046Z,3.24
2022-12-11T07:16:12.282Z,3.26
2022-12-11T07:18:40.644Z,3.33
2022-12-11T07:21:10.599Z,3.43
2022-12-11T07:23:38.405Z,3.48
2022-12-11T07:26:07.807Z,3.47
2022-12-11T07:28:37.582Z,3.46
2022-12-11T07:31:09.491Z,3.52
2022-12-11T07:33:37.484Z,3.42
2022-12-11T07:36:07.464Z,3.34
2022-12-11T07:38:37.189Z,3.39
2022-12-11T07:41:05.480Z,3.38
2022-12-11T07:43:33.869Z,3.31
2022-12-11T07:46:07.221Z,3.43
2022-12-11T07:48:36.187Z,3.35
2022-12-11T07:51:11.005Z,3.38
2022-12-11T07:53:38.878Z,3.40
2022-12-11T07:56:07.268Z,3.48
2022-12-11T07:58:34.937Z,3.41
2022-12-11T08:01:04.059Z,3.35
2022-12-11T08:03:31.687Z,3.33
2022-12-11T08:05:59.272Z,3.38
2022-12-11T08:08:27.910Z,3.41
2022-12-11T08:10:55.501Z,3.48
2022-12-11T08:13:23.451Z,3.45
2022-12-11T08:15:51.477Z,3.50
2022-12-11T08:18:20.565Z,3.36
2022-12-11T08:20:48.277Z,3.43
2022-12-11T08:23:15.815Z,3.41
2022-12-11T08:25:43.478Z,3.41
2022-12-11T08:28:11.000Z,3.35
2022-12-11T08:30:40.159Z,3.34
2022-12-11T08:33:07.972Z,3.36
2022-12-11T08:35:40.389Z,3.36
2022-12-11T08:38:08.124Z,3.34
2022-12-11T08:40:35.847Z,3.41
2022-12-11T08:43:03.393Z,3.44
2022-12-11T08:45:31.004Z,3.54
2022-12-11T08:47:59.371Z,3.53
2022-12-11T08:50:27.118Z,3.45
2022-12-11T08:52:57.488Z,3.35
2022-12-11T08:55:25.455Z,3.44
2022-12-11T08:57:52.999Z,3.47
2022-12-11T09:00:20.918Z,3.44
2022-12-11T09:02:49.296Z,3.43
2022-12-11T09:05:17.981Z,3.42
2022-12-11T09:07:45.797Z,3.41
2022-12-11T09:10:14.909Z,3.47
2022-12-11T09:12:42.848Z,3.51
2022-12-11T09:15:11.565Z,3.53
2022-12-11T09:17:39.234Z,3.54
2022-12-11T09:20:07.888Z,3.52
2022-12-11T09:22:35.647Z,3.64
2022-12-11T09:25:03.487Z,3.53
2022-12-11T09:27:32.523Z,3.52
2022-12-11T09:30:00.206Z,3.53
2022-12-11T09:32:28.084Z,3.55
2022-12-11T09:34:55.787Z,3.48
2022-12-11T09:37:23.515Z,3.46
2022-12-11T09:39:54.128Z,3.39
2022-12-11T09:42:35.455Z,3.47
2022-12-11T09:45:06.974Z,3.46
2022-12-11T09:47:37.841Z,3.49
2022-12-11T09:50:16.650Z,3.59
2022-12-11T09:52:55.936Z,3.64
2022-12-11T09:55:25.570Z,3.53
2022-12-11T09:58:02.118Z,3.56
2022-12-11T10:00:39.008Z,3.56
2022-12-11T10:03:50.269Z,3.70
2022-12-11T10:06:25.135Z,3.75
2022-12-11T10:09:01.650Z,3.79
2022-12-11T10:11:44.424Z,3.84
2022-12-11T10:14:20.720Z,3.84
2022-12-11T10:16:52.958Z,3.80
2022-12-11T10:19:23.072Z,3.91
2022-12-11T10:21:52.807Z,3.87
2022-12-11T10:24:57.826Z,3.89
2022-12-11T10:27:21.143Z,3.90
2022-12-11T10:29:52.607Z,3.83
2022-12-11T10:32:25.338Z,3.84
2022-12-11T10:35:00.303Z,3.93
2022-12-11T10:37:28.101Z,3.90
2022-12-11T10:39:55.747Z,3.83
2022-12-11T10:42:24.425Z,3.98
2022-12-11T10:45:00.418Z,3.97
2022-12-11T10:47:30.160Z,3.99
2022-12-11T10:50:00.165Z,4.06
2022-12-11T10:52:31.654Z,3.96
2022-12-11T10:55:02.673Z,3.95
2022-12-11T10:57:33.557Z,3.96
2022-12-11T11:00:04.311Z,3.99
2022-12-11T11:02:38.801Z,3.94
2022-12-11T11:05:14.956Z,4.00
2022-12-11T11:07:42.888Z,3.89
2022-12-11T11:10:18.498Z,3.98
2022-12-11T11:12:48.280Z,4.07
2022-12-11T11:15:19.408Z,3.88
2022-12-11T11:17:55.369Z,3.82
2022-12-11T11:20:26.680Z,3.94
2022-12-11T11:22:56.243Z,3.87
2022-12-11T11:25:26.330Z,3.79
2022-12-11T11:27:56.121Z,3.76
2022-12-11T11:30:26.017Z,3.68
2022-12-11T11:32:57.436Z,3.74
2022-12-11T11:35:27.305Z,3.74
2022-12-11T11:38:03.098Z,3.79
2022-12-11T11:40:34.258Z,3.78
2022-12-11T11:43:13.663Z,3.86
2022-12-11T11:45:47.859Z,3.86
2022-12-11T11:48:29.514Z,3.81
2022-12-11T11:50:58.426Z,3.84
2022-12-11T11:53:31.445Z,3.80
2022-12-11T11:56:06.904Z,3.84
2022-12-11T11:58:44.803Z,3.83
2022-12-11T12:01:17.227Z,3.83
2022-12-11T12:03:48.454Z,3.98
2022-12-11T12:06:27.039Z,3.91
2022-12-11T12:09:03.543Z,3.96
2022-12-11T12:11:39.030Z,4.03
2022-12-11T12:14:43.654Z,4.06
2022-12-11T12:17:15.246Z,3.86
2022-12-11T12:19:51.248Z,3.95
2022-12-11T12:22:51.032Z,3.95
2022-12-11T12:25:25.549Z,4.03
2022-12-11T12:28:01.190Z,3.98
2022-12-11T12:30:33.300Z,3.84
2022-12-11T12:33:15.814Z,3.88
2022-12-11T12:35:52.447Z,3.86
2022-12-11T12:38:24.569Z,3.91
2022-12-11T12:41:03.780Z,4.06
2022-12-11T12:43:44.985Z,4.04
2022-12-11T12:46:23.057Z,4.06
2022-12-11T12:48:53.362Z,3.97
2022-12-11T12:51:22.689Z,4.05
2022-12-11T12:53:55.577Z,4.01
2022-12-11T12:56:25.337Z,3.95
2022-12-11T12:58:53.245Z,3.93
2022-12-11T13:01:23.867Z,3.88
2022-12-11T13:03:55.775Z,3.86
2022-12-11T13:06:34.050Z,3.91
2022-12-11T13:09:14.481Z,3.98
2022-12-11T13:11:42.794Z,3.89
2022-12-11T13:14:29.195Z,3.88
2022-12-11T13:17:26.454Z,3.88
2022-12-11T13:20:14.913Z,3.79
2022-12-11T13:22:54.680Z,3.78
2022-12-11T13:25:27.079Z,3.80
2022-12-11T13:28:05.482Z,3.87
2022-12-11T13:30:34.500Z,3.86
2022-12-11T13:33:06.016Z,3.82
2022-12-11T13:35:35.223Z,3.91
2022-12-11T13:38:08.814Z,3.88
2022-12-11T13:40:41.073Z,3.83
2022-12-11T13:43:18.259Z,4.03
2022-12-11T13:45:49.992Z,4.07
2022-12-11T13:48:24.811Z,3.94
2022-12-11T13:50:54.489Z,3.98
2022-12-11T13:53:24.314Z,3.93
2022-12-11T13:55:59.053Z,4.01
2022-12-11T13:58:27.135Z,4.14
2022-12-11T14:01:14.084Z,4.17
2022-12-11T14:03:44.471Z,4.15
2022-12-11T14:06:18.582Z,4.10
2022-12-11T14:08:51.065Z,4.01
2022-12-11T14:11:24.840Z,4.06
2022-12-11T14:13:52.544Z,4.01
2022-12-11T14:16:22.039Z,4.00
2022-12-11T14:18:52.031Z,3.95
2022-12-11T14:21:21.164Z,3.94
2022-12-11T14:23:55.739Z,4.00
2022-12-11T14:26:25.842Z,3.88
2022-12-11T14:28:54.323Z,3.86
2022-12-11T14:31:29.679Z,3.84
2022-12-11T14:34:03.019Z,3.87
2022-12-11T14:36:33.003Z,3.75
2022-12-11T14:39:07.210Z,3.80
2022-12-11T14:41:43.832Z,3.77
2022-12-11T14:44:15.880Z,3.71
2022-12-11T14:46:47.307Z,3.76
2022-12-11T14:49:22.144Z,3.75
2022-12-11T14:51:51.694Z,3.70
2022-12-11T14:54:26.385Z,3.76
2022-12-11T14:56:55.406Z,3.71
2022-12-11T14:59:30.102Z,3.77
2022-12-11T15:02:01.525Z,3.68
2022-12-11T15:04:32.050Z,3.59
2022-12-11T15:07:00.450Z,3.65
2022-12-11T15:09:37.094Z,3.57
2022-12-11T15:12:12.344Z,3.62
2022-12-11T15:14:47.979Z,3.64
2022-12-11T15:17:16.495Z,3.63
2022-12-11T15:19:51.298Z,3.65
2022-12-11T15:22:20.741Z,3.64
2022-12-11T15:24:52.625Z,3.65
2022-12-11T15:27:26.928Z,3.66
2022-12-11T15:29:54.708Z,3.66
2022-12-11T15:32:22.697Z,3.65
2022-12-11T15:34:52.965Z,3.67
2022-12-11T15:37:22.884Z,3.68
2022-12-11T15:39:52.575Z,3.65
2022-12-11T15:42:25.504Z,3.69
2022-12-11T15:44:53.517Z,3.71
2022-12-11T15:47:23.410Z,3.60
2022-12-11T15:49:51.025Z,3.58
2022-12-11T15:52:18.539Z,3.64
2022-12-11T15:54:46.025Z,3.63
2022-12-11T15:57:18.772Z,3.63
2022-12-11T15:59:48.694Z,3.73
2022-12-11T16:02:16.810Z,3.70
2022-12-11T16:04:44.686Z,3.76
2022-12-11T16:07:17.567Z,3.73
2022-12-11T16:09:45.536Z,3.75
2022-12-11T16:12:14.980Z,3.69
2022-12-11T16:14:42.921Z,3.72
2022-12-11T16:17:11.684Z,3.66
2022-12-11T16:19:40.369Z,3.68
2022-12-11T16:22:09.519Z,3.66
2022-12-11T16:24:37.299Z,3.63
2022-12-11T16:27:05.930Z,3.60
2022-12-11T16:29:36.814Z,3.59
2022-12-11T16:32:06.933Z,3.59
2022-12-11T16:34:34.933Z,3.60
2022-12-11T16:37:03.196Z,3.63
2022-12-11T16:39:30.665Z,3.58
2022-12-11T16:41:58.186Z,3.55
2022-12-11T16:44:27.484Z,3.55
2022-12-11T16:46:56.713Z,3.64
2022-12-11T16:49:24.288Z,3.64
2022-12-11T16:51:52.122Z,3.71
2022-12-11T16:54:19.992Z,3.67
2022-12-11T16:56:47.524Z,3.65
2022-12-11T16:59:15.237Z,3.61
2022-12-11T17:01:42.923Z,3.60
2022-12-11T17:04:11.900Z,3.61
2022-12-11T17:06:39.324Z,3.58
2022-12-11T17:09:07.138Z,3.63
2022-12-11T17:11:34.988Z,3.66
2022-12-11T17:14:02.497Z,3.61
2022-12-11T17:16:30.477Z,3.67
2022-12-11T17:18:58.930Z,3.74
2022-12-11T17:21:27.757Z,3.76
2022-12-11T17:23:55.209Z,3.79
2022-12-11T17:26:23.724Z,3.68
2022-12-11T17:28:51.979Z,3.74
2022-12-11T17:31:20.627Z,3.73
2022-12-11T17:33:49.525Z,3.82
2022-12-11T17:36:20.328Z,3.73
2022-12-11T17:38:49.982Z,3.66
2022-12-11T17:41:20.758Z,3.66
2022-12-11T17:43:49.145Z,3.65
2022-12-11T17:46:17.997Z,3.63
2022-12-11T17:48:45.742Z,3.62
2022-12-11T17:51:21.153Z,3.62
2022-12-11T17:53:49.876Z,3.64
2022-12-11T17:56:18.450Z,3.59
2022-12-11T17:58:45.986Z,3.53
2022-12-11T18:01:14.029Z,3.59
2022-12-11T18:03:57.476Z,3.55
2022-12-11T18:06:47.761Z,3.51
2022-12-11T18:09:16.669Z,3.44
2022-12-11T18:11:44.257Z,3.46
2022-12-11T18:14:16.961Z,3.49
2022-12-11T18:16:45.359Z,3.53
2022-12-11T18:19:13.162Z,3.48
2022-12-11T18:21:43.740Z,3.48
2022-12-11T18:24:11.776Z,3.47
2022-12-11T18:26:42.623Z,3.51
2022-12-11T18:29:10.830Z,3.47
2022-12-11T18:31:42.343Z,3.42
2022-12-11T18:34:11.210Z,3.43
2022-12-11T18:36:40.807Z,3.53
2022-12-11T18:39:08.436Z,3.49
2022-12-11T18:41:36.011Z,3.52
2022-12-11T18:44:09.544Z,3.49
2022-12-11T18:46:37.649Z,3.42
2022-12-11T18:49:05.204Z,3.43
2022-12-11T18:51:32.857Z,3.41
2022-12-11T18:54:00.345Z,3.49
2022-12-11T18:56:28.039Z,3.57
2022-12-11T18:58:55.806Z,3.50
2022-12-11T19:01:27.017Z,3.44
2022-12-11T19:04:00.609Z,3.46
2022-12-11T19:06:33.023Z,3.45
2022-12-11T19:09:01.298Z,3.49
2022-12-11T19:11:30.937Z,3.48
2022-12-11T19:13:58.583Z,3.50
2022-12-11T19:16:30.472Z,3.45
2022-12-11T19:18:58.665Z,3.42
2022-12-11T19:21:27.141Z,3.35
2022-12-11T19:23:54.959Z,3.41
2022-12-11T19:26:24.293Z,3.42
2022-12-11T19:28:52.617Z,3.42
2022-12-11T19:31:22.543Z,3.36
2022-12-11T19:33:51.906Z,3.39
2022-12-11T19:36:21.598Z,3.36
2022-12-11T19:38:49.924Z,3.41
2022-12-11T19:41:20.701Z,3.37
2022-12-11T19:43:48.956Z,3.34
2022-12-11T19:46:17.228Z,3.39
2022-12-11T19:48:45.387Z,3.47
2022-12-11T19:51:16.196Z,3.43
2022-12-11T19:53:45.021Z,3.45
2022-12-11T19:56:13.792Z,3.39
2022-12-11T19:58:42.190Z,3.45
2022-12-11T20:01:10.751Z,3.47
2022-12-11T20:03:38.748Z,3.43
2022-12-11T20:06:08.633Z,3.48
2022-12-11T20:08:46.039Z,3.44
2022-12-11T20:11:18.594Z,3.59
2022-12-11T20:13:46.991Z,3.50
2022-12-11T20:16:15.689Z,3.50
2022-12-11T20:18:43.536Z,3.48
2022-12-11T20:21:14.436Z,3.53
2022-12-11T20:23:44.311Z,3.52
2022-12-11T20:26:14.202Z,3.54
2022-12-11T20:28:42.630Z,3.59
2022-12-11T20:31:19.539Z,3.60
2022-12-11T20:33:48.633Z,3.62
2022-12-11T20:36:17.785Z,3.64
2022-12-11T20:38:46.817Z,3.62
2022-12-11T20:41:16.052Z,3.62
2022-12-11T20:43:44.471Z,3.60
2022-12-11T20:46:14.627Z,3.60
2022-12-11T20:48:43.926Z,3.62
2022-12-11T20:51:13.565Z,3.62
2022-12-11T20:53:42.236Z,3.56
2022-12-11T20:56:13.321Z,3.49
2022-12-11T20:58:41.527Z,3.49
2022-12-11T21:01:14.938Z,3.43
2022-12-11T21:03:42.934Z,3.49
2022-12-11T21:06:10.629Z,3.37
2022-12-11T21:08:38.451Z,3.40
2022-12-11T21:11:07.308Z,3.38
2022-12-11T21:13:37.301Z,3.41
2022-12-11T21:16:06.714Z,3.33
2022-12-11T21:18:36.477Z,3.35
2022-12-11T21:21:05.317Z,3.31
2022-12-11T21:23:33.782Z,3.41
2022-12-11T21:26:01.694Z,3.43
2022-12-11T21:28:34.971Z,3.41
2022-12-11T21:31:06.162Z,3.38
2022-12-11T21:33:34.470Z,3.34
2022-12-11T21:36:03.404Z,3.35
2022-12-11T21:38:31.776Z,3.32
2022-12-11T21:40:59.949Z,3.31
2022-12-11T21:43:27.626Z,3.36
2022-12-11T21:46:02.655Z,3.33
2022-12-11T21:48:32.176Z,3.32
2022-12-11T21:51:07.359Z,3.40
2022-12-11T21:53:35.387Z,3.39
2022-12-11T21:56:07.196Z,3.41
2022-12-11T21:58:34.858Z,3.42
2022-12-11T22:01:02.504Z,3.34
2022-12-11T22:03:31.664Z,3.37
2022-12-11T22:05:59.431Z,3.34
2022-12-11T22:08:27.185Z,3.33
2022-12-11T22:10:55.669Z,3.31
2022-12-11T22:13:23.422Z,3.35
2022-12-11T22:15:52.157Z,3.39
2022-12-11T22:18:20.169Z,3.39
2022-12-11T22:20:49.223Z,3.32
2022-12-11T22:23:16.758Z,3.33
2022-12-11T22:25:44.467Z,3.35
2022-12-11T22:28:12.067Z,3.28
2022-12-11T22:30:40.588Z,3.22
2022-12-11T22:33:08.988Z,3.28
2022-12-11T22:35:38.383Z,3.33
2022-12-11T22:38:07.619Z,3.29
2022-12-11T22:40:35.461Z,3.30
2022-12-11T22:43:02.967Z,3.31
2022-12-11T22:45:30.438Z,3.26
2022-12-11T22:47:58.113Z,3.29
2022-12-11T22:50:25.764Z,3.31
2022-12-11T22:52:53.430Z,3.28
2022-12-11T22:55:22.245Z,3.24
2022-12-11T22:57:50.101Z,3.28
2022-12-11T23:00:18.189Z,3.27
2022-12-11T23:02:46.379Z,3.28
2022-12-11T23:05:14.450Z,3.23
2022-12-11T23:07:42.292Z,3.21
2022-12-11T23:10:11.200Z,3.22
2022-12-11T23:12:40.230Z,3.18
2022-12-11T23:15:09.121Z,3.22
2022-12-11T23:17:36.852Z,3.35
2022-12-11T23:20:05.737Z,3.27
2022-12-11T23:22:34.090Z,3.25
2022-12-11T23:25:02.116Z,3.28
2022-12-11T23:27:30.236Z,3.38
2022-12-11T23:29:59.088Z,3.37
2022-12-11T23:32:26.684Z,3.32
2022-12-11T23:34:54.157Z,3.34
2022-12-11T23:37:21.750Z,3.29
2022-12-11T23:39:49.407Z,3.29
2022-12-11T23:42:16.868Z,3.29
2022-12-11T23:44:44.339Z,3.45
2022-12-11T23:47:13.241Z,3.37
2022-12-11T23:49:40.698Z,3.35
2022-12-11T23:52:08.697Z,3.32
2022-12-11T23:54:36.294Z,3.35
2022-12-11T23:57:03.790Z,3.33
2022-12-11T23:59:31.219Z,3.37
